Date,TemperatureHighF,TemperatureAvgF,TemperatureLowF,DewpointHighF,DewpointAvgF,DewpointLowF,HumidityHigh,HumidityAvg,HumidityLow,PressureMaxIn,PressureMinIn,WindSpeedMaxMPH,WindSpeedAvgMPH,GustSpeedMaxMPH,PrecipitationSumIn
2013-1-1,38,33,30,37,31,26,96,92,75,30.01,29.83,11,3,23,0.11
2013-1-2,30,27,26,29,26,24,96,95,95,30.11,29.91,0,0,0,0.00
2013-1-3,32,27,24,28,24,20,95,88,73,30.24,30.08,6,1,15,0.03
2013-1-4,30,25,21,23,20,17,88,80,74,30.31,30.23,7,3,19,0.00
2013-1-5,38,31,24,27,23,19,83,72,59,30.34,30.14,8,2,17,0.05
2013-1-6,38,33,30,31,29,26,93,84,75,30.16,29.98,11,5,22,0.01
2013-1-7,43,33,24,28,25,21,86,73,54,30.35,30.17,8,2,18,0.00
2013-1-8,48,41,34,34,28,23,68,60,49,30.27,30.17,10,4,19,0.00
2013-1-9,48,46,44,47,41,31,97,83,58,30.35,30.17,11,4,23,0.08
2013-1-10,60,51,41,52,46,40,97,85,70,30.36,30.08,10,2,22,0.01
2013-1-11,58,54,51,56,51,44,96,89,77,30.06,29.88,18,10,33,0.05
2013-1-12,65,60,57,60,58,56,97,92,83,29.96,29.81,11,4,25,0.03
2013-1-13,62,59,56,57,54,51,95,84,75,29.90,29.76,15,7,31,0.18
2013-1-14,56,39,31,55,39,30,97,97,96,30.23,29.84,11,4,19,0.40
2013-1-15,37,32,30,36,32,29,97,97,97,30.15,29.93,8,1,21,0.27
2013-1-16,48,41,32,48,40,32,98,98,97,29.95,29.79,16,4,33,0.27
2013-1-17,37,30,25,36,29,24,98,97,95,30.21,29.89,4,1,12,0.07
2013-1-18,28,26,23,28,24,21,96,95,92,30.43,30.22,0,0,0,0.13
2013-1-19,38,33,28,30,28,25,91,81,72,30.32,30.02,19,11,30,0.21
2013-1-20,44,37,31,32,27,18,85,68,51,30.04,29.96,12,5,23,0.16
2013-1-21,36,30,19,19,15,6,65,54,41,30.02,29.88,15,5,32,0.00
2013-1-22,18,14,9,5,0,-4,68,54,40,30.25,30.01,12,6,28,0.00
2013-1-23,32,21,11,24,10,0,70,63,58,30.29,29.97,10,4,25,0.00
2013-1-24,35,20,14,27,9,1,77,64,50,30.42,29.93,16,7,36,0.00
2013-1-25,30,23,14,28,17,4,95,81,56,30.34,29.96,15,6,27,0.00
2013-1-26,30,25,23,28,23,21,95,91,87,30.32,30.05,7,1,17,0.07
2013-1-27,40,32,20,31,25,18,93,78,54,30.35,30.18,15,4,31,0.07
2013-1-28,53,44,36,47,39,31,94,82,75,30.20,30.06,17,9,33,0.12
2013-1-29,60,53,45,53,48,44,97,86,68,30.07,29.73,12,8,26,0.04
2013-1-30,63,53,35,56,50,33,97,89,76,29.67,29.26,22,12,44,1.76
2013-1-31,36,28,24,33,22,18,91,79,66,29.88,29.37,18,9,40,0.01
2013-2-1,31,15,5,26,8,-1,93,75,61,30.35,29.78,18,7,40,0.00
2013-2-2,25,19,14,23,15,7,94,83,69,30.32,29.97,18,9,29,0.00
2013-2-3,29,26,22,26,23,17,94,89,80,30.04,29.82,12,6,35,0.00
2013-2-4,37,27,19,26,21,15,87,76,63,30.04,29.85,12,6,24,0.01
2013-2-5,43,37,33,36,31,25,82,77,67,29.86,29.79,9,4,19,0.01
2013-2-6,47,40,32,33,30,26,90,70,51,30.10,29.87,8,2,20,0.00
2013-2-7,51,44,40,38,31,25,82,62,52,30.08,29.80,11,6,24,0.00
2013-2-8,43,36,28,40,33,24,94,87,77,30.12,29.74,14,8,30,0.05
2013-2-9,43,33,24,24,20,16,88,62,34,30.27,30.12,6,2,17,0.00
2013-2-10,54,45,39,41,24,17,90,48,24,30.14,29.82,19,11,40,0.12
2013-2-11,53,48,39,48,40,23,94,76,47,29.95,29.76,22,8,39,0.13
2013-2-12,47,40,33,28,25,23,69,57,40,30.05,29.78,8,3,19,0.00
2013-2-13,41,36,29,37,31,27,96,86,56,29.82,29.50,10,3,21,0.24
2013-2-14,41,34,26,33,28,22,95,80,70,29.94,29.83,9,5,21,0.00
2013-2-15,44,35,28,36,31,26,95,86,72,29.99,29.85,8,4,18,0.04
2013-2-16,27,23,19,26,20,11,94,86,68,29.95,29.85,9,5,28,0.00
2013-2-17,26,19,12,16,11,7,90,72,46,30.19,29.95,12,6,32,0.00
2013-2-18,46,35,23,31,20,10,60,55,51,30.21,29.82,25,10,46,0.00
2013-2-19,41,35,28,37,26,14,97,71,40,29.97,29.73,22,13,43,0.11
2013-2-20,32,25,20,17,14,11,73,61,48,30.16,29.97,12,5,26,0.00
2013-2-21,41,28,17,29,17,13,84,64,42,30.20,30.01,4,0,14,0.14
2013-2-22,52,44,33,44,39,30,93,84,74,30.02,29.85,18,10,36,0.13
2013-2-23,54,46,39,45,42,34,97,84,68,29.85,29.68,7,2,17,0.00
2013-2-24,43,36,30,34,26,22,85,68,47,30.00,29.74,10,5,19,0.00
2013-2-25,49,37,26,31,26,21,81,65,47,30.00,29.78,9,2,23,0.00
2013-2-26,47,41,36,42,36,30,92,83,70,29.78,29.30,19,10,40,0.36
2013-2-27,38,34,30,34,31,28,95,88,82,29.69,29.47,9,5,28,0.01
2013-2-28,29,27,25,27,25,22,94,90,82,29.85,29.64,9,6,25,0.00
2013-3-1,30,28,27,28,27,25,95,94,92,29.86,29.80,6,2,14,0.07
2013-3-2,27,24,20,26,22,17,95,92,88,29.94,29.79,1,0,12,0.00
2013-3-3,22,20,17,20,17,15,92,89,83,30.00,29.92,8,5,21,0.00
2013-3-4,41,29,18,23,18,14,87,66,42,30.11,29.92,7,2,16,0.09
2013-3-5,45,39,29,44,33,22,96,80,52,29.93,29.43,15,7,35,0.81
2013-3-6,27,24,22,25,22,20,94,92,86,30.14,29.59,12,8,28,0.00
2013-3-7,27,25,24,25,23,22,94,93,90,30.27,30.12,4,2,13,0.00
2013-3-8,36,29,24,29,25,22,94,85,73,30.32,30.23,7,2,15,0.01
2013-3-9,59,45,29,34,27,24,81,53,30,30.26,30.01,8,2,20,0.00
2013-3-10,65,56,49,39,33,28,48,43,37,30.01,29.85,19,10,36,0.00
2013-3-11,56,51,47,47,42,32,95,72,46,29.86,29.61,19,14,41,0.36
2013-3-12,47,38,32,46,34,28,96,86,69,29.94,29.65,9,4,19,0.19
2013-3-13,36,29,23,29,23,16,91,76,65,30.17,29.91,13,8,33,0.01
2013-3-14,38,27,20,19,16,15,87,65,44,30.27,30.13,11,6,27,0.00
2013-3-15,56,41,29,40,28,16,69,59,48,30.15,29.77,11,5,26,0.00
2013-3-16,66,57,50,52,47,40,83,69,53,29.76,29.52,12,6,31,0.10
2013-3-17,57,44,41,49,42,39,97,93,74,29.88,29.70,5,1,16,0.12
2013-3-18,51,45,41,46,42,39,96,90,78,29.83,29.63,19,9,40,0.89
2013-3-19,47,41,33,46,27,10,96,63,29,29.99,29.62,15,9,35,0.09
2013-3-20,43,34,27,27,16,8,92,49,30,29.99,29.74,15,7,33,0.00
2013-3-21,26,20,15,23,12,9,88,70,58,29.95,29.75,11,7,23,0.00
2013-3-22,41,27,16,19,14,10,81,59,39,30.01,29.89,5,1,20,0.00
2013-3-23,46,38,33,36,25,15,70,59,46,29.95,29.77,1,0,6,0.00
2013-3-24,44,40,38,41,36,30,94,86,65,29.75,29.23,15,6,31,0.88
2013-3-25,38,28,25,36,23,-100,93,88,73,29.80,29.34,14,9,33,0.08
2013-3-26,29,26,25,26,25,23,94,92,84,30.13,29.81,10,7,23,0.00
2013-3-27,32,28,25,25,23,20,94,79,65,30.21,30.12,9,6,21,0.01
2013-3-28,41,33,27,28,23,20,78,67,52,30.24,30.16,8,4,18,0.00
2013-3-29,50,39,33,33,26,22,89,60,37,30.22,30.08,7,3,19,0.00
2013-3-30,53,43,33,38,35,32,94,75,51,30.14,29.90,5,2,20,0.00
2013-3-31,52,47,42,47,43,38,96,87,68,29.89,29.69,15,5,26,0.26
2013-4-1,49,44,38,43,38,29,93,80,54,29.92,29.72,12,5,30,0.01
2013-4-2,44,36,28,29,20,15,74,55,34,30.10,29.93,9,4,21,0.00
2013-4-3,46,37,28,24,18,15,61,48,34,30.22,30.09,9,2,20,0.00
2013-4-4,42,36,33,33,24,14,96,64,38,30.18,29.88,7,2,18,0.69
2013-4-5,54,42,34,42,34,30,97,77,44,29.95,29.85,8,2,19,0.02
2013-4-6,62,52,41,40,33,30,65,49,30,30.05,29.91,10,3,27,0.00
2013-4-7,65,57,50,45,39,34,58,51,41,29.96,29.86,14,9,29,0.00
2013-4-8,70,61,53,51,47,43,69,61,50,29.92,29.83,11,5,32,0.00
2013-4-9,73,66,57,56,52,49,74,61,43,29.98,29.84,10,4,28,0.00
2013-4-10,78,70,61,60,55,52,74,59,41,29.89,29.69,10,3,25,0.00
2013-4-11,76,68,61,58,54,50,89,63,43,29.70,29.46,12,6,33,0.08
2013-4-12,58,53,47,54,43,-100,95,78,53,29.77,29.35,15,6,33,0.89
2013-4-13,60,52,43,39,36,33,78,56,37,29.90,29.77,12,4,31,0.00
2013-4-14,69,59,50,45,38,33,75,46,36,29.91,29.78,12,5,28,0.04
2013-4-15,51,50,49,47,47,45,93,90,81,29.83,29.78,4,2,14,0.10
2013-4-16,74,65,55,60,54,50,86,71,52,30.07,29.91,17,7,31,0.00
2013-4-17,68,59,56,59,56,54,97,89,72,30.13,29.92,17,4,32,0.74
2013-4-18,72,66,60,60,56,53,85,71,54,29.91,29.65,13,8,37,0.23
2013-4-19,65,54,39,58,50,33,96,85,75,29.84,29.46,19,9,43,0.12
2013-4-20,51,41,32,32,29,26,81,62,42,30.20,29.85,10,5,30,0.00
2013-4-21,57,46,33,35,30,26,74,56,39,30.31,30.18,11,2,24,0.00
2013-4-22,62,51,39,44,36,31,79,59,42,30.23,30.04,10,3,23,0.00
2013-4-23,65,55,42,43,36,28,60,50,42,30.06,29.85,9,4,20,0.00
2013-4-24,65,54,37,56,46,36,95,76,56,30.06,29.77,15,8,35,0.17
2013-4-25,57,44,35,36,33,29,95,68,36,30.23,30.06,7,2,16,0.00
2013-4-26,61,51,36,39,34,30,77,53,37,30.28,30.16,2,0,12,0.00
2013-4-27,56,52,50,49,43,35,95,72,50,30.19,29.99,11,5,23,0.20
2013-4-28,53,50,46,50,48,45,96,93,88,29.99,29.80,22,11,40,0.28
2013-4-29,59,54,50,54,51,48,96,90,81,29.88,29.81,7,2,20,0.08
2013-4-30,72,63,54,58,53,51,90,73,47,29.93,29.82,7,2,17,0.00
2013-5-1,66,60,53,55,52,50,90,75,61,30.07,29.93,11,4,23,0.00
2013-5-2,66,58,52,56,51,48,89,78,66,30.09,30.00,11,4,24,0.00
2013-5-3,63,56,50,50,45,38,87,68,39,30.02,29.90,11,5,27,0.00
2013-5-4,57,52,45,47,41,36,81,68,51,29.90,29.82,13,8,30,0.00
2013-5-5,52,49,45,48,44,39,93,84,72,29.87,29.70,14,8,30,0.35
2013-5-6,61,54,50,54,50,48,95,87,68,29.75,29.63,17,5,33,0.23
2013-5-7,52,50,46,51,48,45,97,95,87,29.81,29.70,4,0,11,0.36
2013-5-8,57,53,50,54,52,49,97,94,86,29.89,29.76,6,2,17,0.07
2013-5-9,69,60,52,58,54,50,94,80,58,29.93,29.85,7,2,18,0.01
2013-5-10,69,63,59,60,56,53,86,78,69,29.89,29.75,9,4,26,0.00
2013-5-11,65,58,50,59,55,47,96,87,73,29.78,29.66,8,3,21,0.33
2013-5-12,50,47,40,47,45,39,95,93,88,29.83,29.76,6,2,17,0.08
2013-5-13,55,46,39,34,31,28,75,57,40,30.06,29.96,10,4,25,0.00
2013-5-14,67,56,44,53,41,31,70,59,51,30.08,29.84,10,5,26,0.00
2013-5-15,79,68,57,62,56,52,87,69,43,29.92,29.76,12,6,23,0.00
2013-5-16,73,67,62,60,56,51,83,67,54,29.85,29.76,6,2,21,0.00
2013-5-17,75,66,58,64,59,56,95,79,60,29.92,29.81,5,1,18,1.17
2013-5-18,67,62,60,62,60,57,96,90,84,29.94,29.84,6,3,18,0.21
2013-5-19,74,64,60,67,62,59,97,92,76,29.90,29.79,6,4,18,0.10
2013-5-20,72,65,60,67,62,59,97,92,83,29.95,29.83,8,3,21,0.59
2013-5-21,78,69,62,68,64,58,96,85,70,29.86,29.72,10,3,23,0.04
2013-5-22,78,66,58,67,60,56,95,82,62,29.77,29.66,12,6,43,0.22
2013-5-23,69,62,54,61,58,53,96,88,72,29.78,29.67,8,4,25,0.19
2013-5-24,56,50,42,52,44,40,97,83,58,30.14,29.77,9,4,26,0.15
2013-5-25,59,51,40,45,41,36,90,70,52,30.22,30.09,5,1,15,0.00
2013-5-26,65,56,48,53,46,41,82,70,58,30.14,30.05,4,1,15,0.00
2013-5-27,73,64,54,59,54,46,77,69,59,30.06,29.91,8,4,20,0.00
2013-5-28,66,64,62,58,57,56,82,80,77,29.94,29.89,6,4,18,0.00
2013-5-29,79,71,62,65,60,57,82,70,55,30.01,29.90,6,2,20,0.00
2013-5-30,79,71,64,65,60,57,79,69,51,30.04,29.91,7,3,24,0.00
2013-5-31,79,71,64,66,61,57,80,70,56,29.98,29.86,9,4,22,0.00
2013-6-1,80,72,65,68,62,59,84,71,58,29.88,29.73,13,5,31,0.00
2013-6-2,70,64,62,64,62,61,97,92,74,29.78,29.70,11,4,26,0.56
2013-6-3,70,63,59,64,60,57,98,90,74,29.86,29.72,6,1,17,0.01
2013-6-4,59,58,56,57,56,55,96,94,92,29.86,29.83,0,0,0,0.00
2013-6-5,77,68,62,67,61,57,97,81,65,29.88,29.73,13,3,42,0.45
2013-6-6,74,67,62,68,63,60,97,89,75,29.76,29.59,9,3,24,1.04
2013-6-7,68,63,60,64,62,58,98,95,83,29.71,29.53,3,0,15,0.17
2013-6-8,72,65,57,64,61,57,97,85,72,29.90,29.69,4,0,13,0.04
2013-6-9,78,68,63,66,62,60,97,83,63,29.96,29.82,9,3,23,0.46
2013-6-10,64,63,63,62,62,62,97,97,96,29.81,29.72,9,6,21,0.00
2013-6-11,74,66,60,64,61,58,95,84,69,29.85,29.75,5,1,16,0.00
2013-6-12,84,75,66,72,68,62,92,79,63,29.83,29.67,7,3,21,0.00
2013-6-13,76,68,59,71,66,57,95,90,82,29.70,29.51,10,4,33,0.40
2013-6-14,70,62,56,58,56,54,96,81,65,29.90,29.70,6,2,18,0.01
2013-6-15,75,67,59,62,58,54,85,73,56,29.98,29.86,4,1,16,0.00
2013-6-16,75,69,63,68,64,60,95,83,76,29.92,29.83,5,2,16,0.00
2013-6-17,76,68,63,69,65,60,97,90,76,29.85,29.74,6,2,26,0.53
2013-6-18,68,66,64,65,62,60,94,86,78,29.75,29.66,4,1,13,0.03
2013-6-19,75,66,60,65,62,59,98,86,67,29.93,29.79,1,0,11,0.01
2013-6-20,77,69,61,66,63,60,94,82,64,30.02,29.92,3,1,11,0.00
2013-6-21,79,70,64,69,64,60,91,82,66,30.06,29.98,6,2,14,0.00
2013-6-22,80,71,62,65,62,59,90,73,53,30.05,29.92,6,2,17,0.00
2013-6-23,79,73,65,68,63,59,84,72,59,30.02,29.91,6,2,17,0.00
2013-6-24,76,70,67,69,65,62,95,83,73,30.01,29.92,5,2,16,0.60
2013-6-25,70,68,66,66,65,64,96,91,84,29.94,29.89,4,1,12,0.00
2013-6-26,78,69,65,71,67,64,98,93,77,29.84,29.71,7,3,21,0.12
2013-6-27,74,68,62,70,66,60,98,93,85,29.70,29.58,11,3,30,0.24
2013-6-28,76,70,66,69,65,62,98,85,67,29.62,29.45,10,2,27,0.01
2013-6-29,74,69,63,66,63,59,95,82,69,29.51,29.43,5,2,17,0.00
2013-6-30,78,70,63,66,62,59,96,75,54,29.64,29.50,5,3,17,1.05
2013-7-1,77,67,61,69,64,61,98,90,69,29.75,29.59,5,2,25,2.33
2013-7-2,64,64,63,62,62,62,96,95,94,29.75,29.73,6,3,18,0.00
2013-7-3,70,66,62,67,64,60,97,93,88,30.03,29.87,7,4,17,0.37
2013-7-4,76,67,61,70,64,60,97,92,76,30.03,29.95,8,4,36,0.32
2013-7-5,76,70,65,69,66,63,96,87,76,30.01,29.94,8,4,22,0.00
2013-7-6,78,70,63,69,66,62,97,86,72,30.00,29.89,7,4,21,0.43
2013-7-7,70,67,64,68,65,63,98,96,90,29.99,29.89,4,1,14,0.31
2013-7-8,77,69,63,69,66,62,99,89,73,30.03,29.94,5,2,13,0.01
2013-7-9,79,74,67,72,68,63,93,82,73,29.97,29.87,3,1,12,0.09
2013-7-10,75,71,68,72,69,67,97,93,86,29.88,29.74,6,2,17,0.63
2013-7-11,75,69,65,71,67,64,98,91,79,29.80,29.72,3,0,12,0.08
2013-7-12,72,66,62,66,63,55,98,90,75,29.86,29.74,2,0,15,0.00
2013-7-13,76,68,60,66,63,58,96,83,70,29.94,29.82,6,2,18,0.00
2013-7-14,77,72,66,70,67,64,96,85,73,30.08,29.92,8,3,24,0.12
2013-7-15,83,74,66,71,66,63,90,77,63,30.15,30.06,6,2,13,0.00
2013-7-16,82,76,69,72,68,63,88,76,66,30.15,30.07,4,1,11,0.00
2013-7-17,82,73,68,75,70,67,98,90,81,30.12,30.00,5,1,17,0.35
2013-7-18,82,72,66,75,69,65,98,91,76,30.03,29.90,3,0,16,0.12
2013-7-19,79,72,68,74,69,65,95,88,81,29.92,29.80,5,2,14,0.43
2013-7-20,82,72,67,73,68,64,97,87,75,29.83,29.73,6,2,19,0.02
2013-7-21,76,70,67,72,68,65,98,95,84,29.85,29.74,5,2,15,0.34
2013-7-22,77,69,65,70,67,64,99,94,80,29.81,29.64,7,3,21,0.08
2013-7-23,78,71,66,68,66,65,98,86,66,29.70,29.61,7,2,17,0.13
2013-7-24,75,70,65,69,66,63,98,90,76,29.73,29.59,3,1,15,0.00
2013-7-25,71,64,59,63,60,57,98,87,69,29.92,29.72,2,0,11,0.00
2013-7-26,78,68,58,67,61,55,89,79,68,29.92,29.81,5,1,15,0.00
2013-7-27,75,68,64,67,65,63,95,90,73,29.82,29.70,5,2,15,0.13
2013-7-28,74,66,59,66,61,56,98,85,57,29.92,29.72,4,1,16,0.02
2013-7-29,71,63,55,60,56,53,94,79,63,30.07,29.89,1,0,10,0.00
2013-7-30,72,66,59,63,58,53,87,76,66,30.07,29.97,3,0,9,0.00
2013-7-31,66,63,59,65,61,57,98,93,81,29.99,29.82,5,2,18,0.35
2013-8-1,75,67,64,68,65,63,99,92,78,29.83,29.75,5,2,16,0.27
2013-8-2,76,68,61,66,62,60,96,82,64,29.88,29.80,1,0,7,0.00
2013-8-3,77,71,66,69,64,59,90,80,71,29.85,29.78,4,1,12,0.00
2013-8-4,74,67,61,66,63,59,98,87,66,29.91,29.79,2,1,13,0.14
2013-8-5,76,66,58,66,61,57,97,85,65,29.92,29.81,2,0,13,0.00
2013-8-6,77,69,63,69,64,60,91,84,74,29.85,29.76,4,1,14,0.00
2013-8-7,72,69,67,70,67,66,96,93,89,29.85,29.78,7,4,22,0.07
2013-8-8,74,70,66,71,68,65,97,95,90,29.86,29.79,5,3,19,0.41
2013-8-9,80,72,68,75,70,66,97,92,83,29.89,29.78,8,3,18,0.05
2013-8-10,76,70,67,73,69,65,99,96,89,29.94,29.85,5,1,16,0.40
2013-8-11,79,70,66,73,68,66,99,95,78,29.98,29.85,5,2,17,0.62
2013-8-12,77,69,65,72,68,64,99,95,84,29.92,29.78,7,2,19,0.34
2013-8-13,75,67,63,69,66,63,99,95,84,29.80,29.67,6,2,17,0.36
2013-8-14,65,59,54,62,55,51,98,87,71,29.98,29.77,2,0,14,0.00
2013-8-15,72,62,50,63,56,48,95,83,69,29.98,29.89,4,1,12,0.00
2013-8-16,74,65,56,62,58,53,92,79,63,29.94,29.90,3,1,14,0.00
2013-8-17,68,63,58,62,57,52,95,81,69,30.00,29.93,4,1,16,0.04
2013-8-18,74,66,60,68,63,59,97,90,74,30.02,29.94,5,2,17,0.04
2013-8-19,73,66,62,69,65,62,98,94,84,29.98,29.90,4,1,14,0.04
2013-8-20,66,66,65,64,64,63,96,95,93,29.94,29.92,1,0,6,0.00
2013-8-21,76,68,62,71,66,59,97,92,82,30.03,29.94,6,2,19,0.01
2013-8-22,77,70,63,71,66,60,97,88,70,30.00,29.86,3,1,13,0.00
2013-8-23,75,69,66,68,66,63,95,88,77,29.94,29.83,3,0,13,0.01
2013-8-24,75,68,60,64,59,54,98,74,48,30.11,29.94,3,1,13,0.01
2013-8-25,74,67,58,61,56,53,84,70,52,30.20,30.10,6,2,19,0.00
2013-8-26,75,68,60,68,62,57,88,81,70,30.13,29.97,4,1,12,0.00
2013-8-27,77,71,66,70,66,63,94,87,79,29.97,29.85,4,1,13,0.00
2013-8-28,80,74,68,72,68,66,97,85,69,29.87,29.75,4,1,16,0.00
2013-8-29,79,73,69,72,69,67,96,88,74,29.84,29.74,6,1,17,0.00
2013-8-30,82,73,67,71,68,64,95,83,67,29.83,29.72,5,2,17,0.01
2013-8-31,75,70,67,72,67,64,99,92,82,29.76,29.69,6,2,31,0.11
2013-9-1,74,68,65,71,67,64,98,94,88,29.73,29.65,5,2,16,0.22
2013-9-2,78,69,65,72,67,64,98,93,82,29.75,29.65,6,1,29,1.64
2013-9-3,72,67,63,68,63,59,98,88,72,29.86,29.67,6,1,17,0.02
2013-9-4,73,64,55,64,59,54,98,87,65,29.99,29.86,1,0,7,0.01
2013-9-5,73,65,57,64,60,55,96,84,67,30.02,29.94,2,0,11,0.01
2013-9-6,75,67,61,64,60,56,90,79,62,30.02,29.92,2,0,10,0.00
2013-9-7,76,69,60,65,61,56,86,77,62,29.93,29.82,2,0,11,0.00
2013-9-8,76,70,66,69,65,62,90,85,74,29.84,29.78,3,0,10,0.01
2013-9-9,81,72,66,70,67,63,93,83,65,29.94,29.84,6,1,15,0.00
2013-9-10,81,73,66,71,67,63,91,82,70,30.04,29.93,4,2,13,0.00
2013-9-11,77,71,67,71,67,65,96,88,82,30.03,29.92,3,0,14,0.70
2013-9-12,80,70,63,72,66,61,97,89,73,29.91,29.69,9,0,30,0.17
2013-9-13,65,60,51,63,56,48,98,86,65,29.86,29.67,5,2,17,0.01
2013-9-14,63,54,46,53,49,45,97,83,66,29.98,29.86,2,0,11,0.00
2013-9-15,72,62,53,61,55,48,89,78,65,30.03,29.94,3,1,15,0.00
2013-9-16,66,62,59,61,58,56,95,87,81,30.03,29.93,1,0,10,0.00
2013-9-17,70,59,50,62,55,49,98,87,72,30.11,30.03,5,1,15,0.02
2013-9-18,61,57,55,57,54,51,98,90,80,30.08,30.00,7,3,21,0.08
2013-9-19,69,62,58,67,61,58,98,96,91,30.02,29.90,3,1,13,0.47
2013-9-20,75,68,62,69,64,61,97,89,76,29.91,29.71,4,2,17,0.00
2013-9-21,66,61,55,63,60,54,97,95,91,29.70,29.55,9,2,28,0.72
2013-9-22,63,55,50,55,52,48,98,90,70,29.84,29.66,2,0,12,0.01
2013-9-23,66,54,44,59,51,43,98,90,74,29.93,29.82,1,0,11,0.01
2013-9-24,71,63,54,60,56,51,92,80,65,29.91,29.74,3,0,13,0.00
2013-9-25,65,61,58,61,58,56,97,92,84,29.74,29.67,3,0,12,0.12
2013-9-26,68,60,55,58,57,55,98,88,66,29.92,29.72,1,0,9,0.01
2013-9-27,70,62,56,59,54,51,95,78,53,29.99,29.88,1,0,8,0.00
2013-9-28,71,61,53,59,54,50,90,79,59,30.06,29.95,7,2,17,0.00
2013-9-29,65,58,53,59,54,50,94,87,77,29.98,29.88,7,1,20,0.00
2013-9-30,67,61,56,60,57,54,96,88,74,29.92,29.83,3,1,13,0.00
2013-10-1,71,63,57,61,58,54,93,83,70,29.98,29.88,4,1,12,0.00
2013-10-2,74,66,60,62,59,56,89,79,66,30.00,29.90,2,0,9,0.00
2013-10-3,75,68,62,65,61,59,91,81,69,29.96,29.88,3,1,11,0.00
2013-10-4,76,68,62,65,61,59,91,80,63,29.99,29.91,2,0,10,0.00
2013-10-5,78,69,63,67,62,59,88,80,67,29.97,29.82,5,1,17,0.00
2013-10-6,76,69,63,65,61,59,91,78,61,29.81,29.62,7,4,24,0.00
2013-10-7,67,54,47,61,49,43,96,86,67,29.99,29.61,10,2,26,0.27
2013-10-8,64,52,42,50,45,41,94,78,53,30.07,29.96,4,1,16,0.00
2013-10-9,69,57,48,51,46,39,81,67,53,30.07,29.98,4,1,15,0.00
2013-10-10,64,57,52,52,46,41,77,66,55,30.00,29.91,1,0,12,0.00
2013-10-11,67,59,52,55,48,43,87,69,42,29.92,29.83,3,1,14,0.00
2013-10-12,63,59,55,59,56,54,95,91,87,29.96,29.82,1,0,7,0.00
2013-10-13,58,57,56,57,56,55,96,95,94,30.01,29.96,0,0,4,0.00
2013-10-14,68,61,56,61,58,54,98,90,77,30.09,29.97,4,0,11,0.00
2013-10-15,67,60,53,59,55,51,93,83,67,30.00,29.86,4,2,15,0.00
2013-10-16,61,58,54,58,55,51,96,90,85,29.87,29.80,5,2,16,0.00
2013-10-17,61,55,46,60,54,44,97,96,95,29.85,29.65,8,3,20,0.07
2013-10-18,58,48,42,47,43,41,96,84,62,29.96,29.83,0,0,2,0.01
2013-10-19,55,48,41,49,44,38,94,87,72,29.87,29.72,7,2,18,0.01
2013-10-20,56,45,36,38,36,34,95,74,48,29.99,29.87,3,0,11,0.00
2013-10-21,61,52,45,46,41,34,82,68,56,29.96,29.81,6,2,19,0.00
2013-10-22,53,47,43,46,43,42,96,88,66,29.84,29.71,4,0,16,0.02
2013-10-23,44,38,32,43,37,30,97,93,84,29.94,29.62,10,4,27,0.04
2013-10-24,39,34,31,34,31,28,95,88,77,30.11,29.94,7,2,18,0.05
2013-10-25,35,30,26,31,27,23,95,88,70,30.34,30.11,7,2,15,0.04
2013-10-26,46,37,28,34,28,23,82,70,57,30.25,29.96,9,6,22,0.00
2013-10-27,59,50,40,45,40,34,81,70,56,30.00,29.89,8,2,21,0.00
2013-10-28,55,51,49,52,48,45,96,90,80,30.11,29.95,6,1,14,0.09
2013-10-29,60,55,51,54,50,49,96,86,70,30.18,30.07,4,1,14,0.02
2013-10-30,64,58,51,58,54,49,96,86,77,30.09,29.99,9,3,22,0.33
2013-10-31,64,60,57,55,54,52,89,79,70,29.95,29.44,21,8,44,0.01
2013-11-1,65,60,52,58,51,43,95,75,52,29.61,29.43,25,6,47,0.35
2013-11-2,53,48,42,43,38,34,82,69,57,29.88,29.57,10,4,23,0.00
2013-11-3,47,41,37,37,34,30,91,78,64,30.24,29.90,7,1,15,0.00
2013-11-4,53,45,37,36,32,30,74,61,51,30.32,30.21,10,3,24,0.00
2013-11-5,57,48,40,35,31,29,66,52,38,30.34,30.21,8,2,17,0.00
2013-11-6,66,57,48,54,48,36,87,73,63,30.21,29.88,12,6,26,0.00
2013-11-7,56,44,33,51,40,28,95,86,72,30.13,29.81,9,5,21,0.18
2013-11-8,42,36,30,28,26,23,83,67,50,30.27,30.12,9,3,18,0.00
2013-11-9,49,42,35,32,27,23,61,56,48,30.18,30.06,13,7,25,0.00
2013-11-10,53,45,36,38,30,24,77,58,37,30.19,30.06,13,5,26,0.00
2013-11-11,58,46,34,30,25,22,65,45,25,30.20,29.98,6,3,16,0.00
2013-11-12,50,31,20,36,24,17,94,79,39,30.47,29.92,10,6,23,0.00
2013-11-13,32,25,18,20,18,15,90,76,59,30.56,30.37,8,3,15,0.00
2013-11-14,48,37,28,25,20,16,64,49,37,30.36,30.14,11,6,19,0.00
2013-11-15,50,44,38,44,30,18,95,62,40,30.17,30.03,11,5,20,0.06
2013-11-16,60,53,45,52,48,44,95,86,75,30.07,29.92,18,5,35,0.00
2013-11-17,62,57,52,57,53,48,96,87,74,29.92,29.61,20,12,38,0.45
2013-11-18,57,49,38,56,39,28,96,69,50,29.98,29.65,11,7,25,0.00
2013-11-19,40,34,29,28,26,24,86,74,61,30.18,29.97,9,3,18,0.00
2013-11-20,48,39,30,30,27,25,82,62,48,30.25,30.11,8,3,20,0.00
2013-11-21,60,50,37,50,42,28,88,74,65,30.26,30.13,9,6,23,0.00
2013-11-22,54,52,46,52,50,45,96,93,88,30.13,29.99,13,5,25,0.16
2013-11-23,45,34,23,44,31,16,96,87,70,30.26,30.04,11,5,24,0.03
2013-11-24,23,18,14,17,8,4,85,67,49,30.49,30.25,8,4,21,0.00
2013-11-25,35,27,15,26,11,4,90,53,40,30.46,30.11,13,5,21,0.00
2013-11-26,45,38,30,43,36,27,96,94,88,30.09,29.60,10,4,21,1.25
2013-11-27,30,22,16,29,21,14,96,94,92,30.21,29.64,11,8,27,0.00
2013-11-28,32,22,13,25,18,11,92,85,51,30.38,30.21,13,4,23,0.05
2013-11-29,38,32,26,26,21,16,71,64,52,30.50,30.38,4,0,11,0.02
2013-11-30,45,38,31,29,25,22,72,61,52,30.40,30.15,13,7,21,0.00
2013-12-1,46,40,33,34,30,25,73,67,60,30.15,29.87,11,5,20,0.00
2013-12-2,44,42,39,40,36,32,90,80,69,29.86,29.67,5,3,13,0.00
2013-12-3,53,47,42,47,43,38,93,86,79,29.76,29.68,6,3,16,0.00
2013-12-4,61,54,47,52,48,44,91,81,70,29.83,29.71,10,6,25,0.00
2013-12-5,63,59,54,58,54,50,95,86,82,29.85,29.74,12,6,27,0.05
2013-12-6,59,38,31,58,37,30,96,96,95,30.07,29.76,8,2,20,1.02
2013-12-7,31,28,26,30,26,24,96,95,94,30.37,30.08,4,0,12,0.00
2013-12-8,42,34,27,41,33,26,97,96,95,30.31,29.94,12,4,26,0.92
2013-12-9,47,45,43,46,45,42,98,98,97,29.93,29.89,11,5,22,0.08
2013-12-10,35,27,23,34,26,19,97,94,85,30.26,29.88,8,3,20,0.15
2013-12-11,38,29,21,25,20,16,89,72,51,30.34,30.20,12,5,22,0.03
2013-12-12,28,24,20,21,14,8,84,66,44,30.40,30.26,8,3,16,0.00
2013-12-13,38,31,22,22,16,10,64,55,47,30.29,30.07,10,5,21,0.01
2013-12-14,44,40,35,42,33,18,95,77,45,30.07,29.61,23,7,39,0.47
2013-12-15,40,29,25,38,27,23,95,92,87,30.04,29.62,11,6,26,0.01
2013-12-16,36,30,24,31,27,22,94,88,79,30.10,29.97,16,9,28,0.01
2013-12-17,44,35,29,36,30,19,90,83,64,30.05,29.81,13,6,28,0.08
2013-12-18,37,30,22,22,20,18,82,68,52,30.19,30.05,14,6,28,0.00
2013-12-19,48,40,32,27,23,18,61,50,42,30.16,29.98,16,8,30,0.00
2013-12-20,54,48,41,43,33,25,74,56,44,30.02,29.90,12,7,32,0.00
2013-12-21,66,59,52,58,51,42,82,76,69,29.91,29.60,18,12,40,0.01
2013-12-22,66,55,52,59,52,50,95,91,77,29.87,29.60,23,9,45,1.02
2013-12-23,51,37,26,50,36,23,95,93,87,30.21,29.84,10,4,26,0.20
2013-12-24,26,22,14,23,17,10,92,83,74,30.40,30.19,9,4,22,0.00
2013-12-25,34,25,14,20,14,6,81,65,53,30.38,30.17,15,6,30,0.00
2013-12-26,36,31,26,26,21,17,83,67,54,30.29,30.14,8,3,18,0.00
2013-12-27,44,36,28,24,19,12,60,51,42,30.34,30.25,7,2,14,0.00
2013-12-28,45,39,33,38,25,21,93,57,41,30.26,29.91,11,6,24,0.20
2013-12-29,43,40,36,42,39,32,96,93,87,29.90,29.66,13,5,22,1.00
2013-12-30,36,30,27,35,29,26,95,94,92,30.09,29.86,7,2,18,0.04
2013-12-31,33,28,24,27,22,20,94,79,58,30.28,30.08,14,4,24,0.00
2014-1-1,45,37,28,27,22,18,79,55,38,30.23,29.92,14,8,24,0.00
2014-1-2,39,31,11,36,27,9,95,85,57,29.92,29.56,16,8,33,0.12